Winston, Montana
Current Conditions -  °F | °C
As of 10:53 PM on Thursday 27 Nov 2014 (Local Time) from KHLN Reporting Station
Few Clouds Few Clouds  
Wind Chill: 51°   Ceiling: Unl
Heat Index: 51°   Visibility: 10mi
Dew Point: 34°   Wind: 13mph
Humidity: 52%   Direction: 170°S
Pressure: 29.76"   Gusts: 18mph
Location:  46.47°N, 111.68°W
Report Text: KHLN 280553Z AUTO 17011G16KT 10SM FEW065 11/01 A2976 RMK AO2 SLP105 T01060011 10122 20067 58011 $
Loading
Personal Weather Stations






























Interactive Weather Map New forecast layout! Learn more

10-Day Weather Forecast

Advertisements
Track Severe Weather on mobile